Time;durP1;ratioP1;P1;durP2;ratioP2;P2;SDS_P1;SDS_P2;PMS_P1;PMS_P2;Temp;Humidity;BMP_temperature;BMP_pressure;BME280_temperature;BME280_humidity;BME280_pressure;Samples;Min_cycle;Max_cycle;Signal;HPM_P1;HPM_P2
2022/02/05 00:02:20;;;;;;;;;88.25;70.50;;;;;;;;4999296;28;10550;-77
2022/02/05 00:04:46;;;;;;;;;82.00;65.00;;;;;;;;4999414;28;12299;-76
2022/02/05 00:07:13;;;;;;;;;80.75;62.00;;;;;;;;4982354;28;13416;-76
2022/02/05 00:33:00;;;;;;;;;86.25;68.00;;;;;;;;5060288;28;13292;-78
2022/02/05 00:42:09;;;;;;;;;81.00;64.25;;;;;;;;5059723;28;13181;-74
2022/02/05 00:44:34;;;;;;;;;80.25;61.75;;;;;;;;5058441;28;10838;-75
2022/02/05 00:47:00;;;;;;;;;81.00;66.50;;;;;;;;5060193;28;10530;-76
2022/02/05 00:49:25;;;;;;;;;82.75;64.50;;;;;;;;5059902;28;11372;-76
2022/02/05 00:51:56;;;;;;;;;84.25;70.00;;;;;;;;5060149;28;10356;-74
2022/02/05 00:54:25;;;;;;;;;79.75;62.50;;;;;;;;5057982;28;13648;-74
2022/02/05 09:24:41;;;;;;;;;85.00;70.50;;;;;;;;5145180;27;1494265;-73
2022/02/05 09:27:09;;;;;;;;;84.00;67.00;;;;;;;;5180654;27;22486;-75
2022/02/05 09:32:21;;;;;;;;;86.75;67.00;;;;;;;;5163106;27;10595;-74
2022/02/05 09:34:48;;;;;;;;;77.25;60.50;;;;;;;;5177646;22;8822;-76
2022/02/05 09:37:13;;;;;;;;;78.50;61.00;;;;;;;;5139696;27;16117;-79
2022/02/05 09:39:39;;;;;;;;;75.50;60.50;;;;;;;;5139585;27;13210;-78
2022/02/05 09:42:04;;;;;;;;;79.75;61.75;;;;;;;;5158813;27;12456;-80
2022/02/05 09:44:30;;;;;;;;;83.25;63.75;;;;;;;;5139123;27;13170;-80
2022/02/05 09:46:56;;;;;;;;;58.50;46.50;;;;;;;;5158049;27;11368;-79
2022/02/05 09:49:23;;;;;;;;;86.00;70.00;;;;;;;;5139351;27;15365;-79
2022/02/05 09:52:06;;;;;;;;;82.75;63.25;;;;;;;;5135979;27;16178;-77
2022/02/05 09:54:31;;;;;;;;;82.75;63.25;;;;;;;;5157204;27;12617;-78
2022/02/05 09:57:00;;;;;;;;;82.75;66.00;;;;;;;;5157876;27;8794;-81
2022/02/05 09:59:25;;;;;;;;;84.75;68.00;;;;;;;;5155836;27;8794;-80
2022/02/05 10:02:11;;;;;;;;;89.25;73.75;;;;;;;;5147522;27;9038;-79
2022/02/05 10:04:52;;;;;;;;;82.75;66.25;;;;;;;;5136465;27;12577;-82
2022/02/05 10:07:18;;;;;;;;;81.00;60.50;;;;;;;;5136381;27;13949;-77
2022/02/05 10:09:53;;;;;;;;;83.25;65.00;;;;;;;;5153773;27;11934;-79
2022/02/05 10:12:19;;;;;;;;;89.00;75.00;;;;;;;;5138661;27;12094;-79
2022/02/05 10:14:49;;;;;;;;;83.50;67.50;;;;;;;;5156151;27;11747;-79
2022/02/05 10:17:15;;;;;;;;;79.50;61.75;;;;;;;;5156340;27;12285;-80
2022/02/05 10:19:51;;;;;;;;;76.00;59.00;;;;;;;;5155760;27;15035;-80
2022/02/05 10:22:17;;;;;;;;;70.00;57.75;;;;;;;;5153294;27;12316;-77
2022/02/05 10:24:53;;;;;;;;;80.75;64.75;;;;;;;;5135781;27;11414;-75
2022/02/05 10:27:26;;;;;;;;;80.33;62.33;;;;;;;;5155225;27;13667;-77
2022/02/05 10:30:09;;;;;;;;;74.67;57.00;;;;;;;;5155159;27;9619;-81
2022/02/05 10:32:41;;;;;;;;;71.33;55.33;;;;;;;;5153904;27;14009;-80
2022/02/05 10:35:20;;;;;;;;;48.67;40.00;;;;;;;;5148077;27;11979;-77
2022/02/05 10:37:51;;;;;;;;;67.67;51.67;;;;;;;;5142829;27;13549;-78
2022/02/05 10:40:23;;;;;;;;;70.33;55.33;;;;;;;;5143604;27;13581;-77
2022/02/05 10:43:03;;;;;;;;;78.00;60.67;;;;;;;;5143083;27;13730;-76
2022/02/05 10:45:40;;;;;;;;;71.00;57.00;;;;;;;;5143738;27;12521;-76
2022/02/05 10:48:05;;;;;;;;;69.33;55.67;;;;;;;;5143537;27;12314;-77
2022/02/05 10:50:34;;;;;;;;;66.67;54.00;;;;;;;;5144594;27;13862;-75
2022/02/05 10:53:08;;;;;;;;;70.67;55.00;;;;;;;;5144502;27;12119;-77
2022/02/05 10:55:44;;;;;;;;;63.00;53.00;;;;;;;;5143454;27;11288;-78
2022/02/05 10:58:17;;;;;;;;;70.00;56.33;;;;;;;;5143051;27;12357;-78
2022/02/05 11:05:55;;;;;;;;;71.00;56.33;;;;;;;;5142861;27;11555;-76
2022/02/05 11:08:22;;;;;;;;;71.00;57.33;;;;;;;;5141840;27;10507;-75
2022/02/05 11:21:17;;;;;;;;;54.00;45.00;;;;;;;;5142024;27;11568;-76
2022/02/05 11:23:55;;;;;;;;;52.50;42.25;;;;;;;;5142634;27;13367;-75
2022/02/05 11:26:21;;;;;;;;;52.50;44.00;;;;;;;;5123568;27;13492;-79
2022/02/05 11:28:46;;;;;;;;;36.75;31.25;;;;;;;;5142088;27;11489;-84
2022/02/05 11:31:37;;;;;;;;;21.25;19.50;;;;;;;;5142021;27;13581;-79
2022/02/05 11:34:24;;;;;;;;;29.25;26.00;;;;;;;;5106605;28;14453;-77
2022/02/05 11:37:02;;;;;;;;;22.00;20.00;;;;;;;;5102834;28;14646;-74
2022/02/05 11:39:27;;;;;;;;;23.50;21.00;;;;;;;;5120996;28;11386;-79
2022/02/05 11:41:53;;;;;;;;;18.75;18.75;;;;;;;;5102688;28;12858;-79
2022/02/05 11:44:18;;;;;;;;;24.25;20.50;;;;;;;;5121172;28;13268;-78
2022/02/05 11:47:02;;;;;;;;;17.75;17.00;;;;;;;;5119832;27;13314;-78
2022/02/05 11:49:48;;;;;;;;;17.50;16.25;;;;;;;;5121010;28;13279;-78
2022/02/05 11:52:33;;;;;;;;;22.50;21.00;;;;;;;;5106149;28;11402;-77
2022/02/05 11:54:59;;;;;;;;;31.75;30.50;;;;;;;;5114471;27;15228;-75
2022/02/05 11:57:46;;;;;;;;;32.25;31.50;;;;;;;;5140824;27;13234;-75
2022/02/05 12:00:18;;;;;;;;;34.50;29.25;;;;;;;;5141917;27;10889;-77
2022/02/05 12:02:51;;;;;;;;;34.25;30.75;;;;;;;;5122643;27;12712;-76
2022/02/05 12:05:18;;;;;;;;;42.25;33.00;;;;;;;;5122232;27;13671;-76
2022/02/05 12:08:02;;;;;;;;;31.50;27.50;;;;;;;;5141362;27;13578;-81
2022/02/05 12:10:36;;;;;;;;;34.50;32.25;;;;;;;;5142041;27;13500;-76
2022/02/05 12:13:17;;;;;;;;;41.25;35.50;;;;;;;;5119497;27;14332;-79
2022/02/05 12:15:43;;;;;;;;;38.50;33.00;;;;;;;;5139909;27;14467;-78
2022/02/05 12:21:00;;;;;;;;;24.25;24.25;;;;;;;;5132322;27;10681;-78
2022/02/05 12:23:32;;;;;;;;;20.25;16.25;;;;;;;;5140798;27;13925;-78
2022/02/05 12:25:58;;;;;;;;;19.50;18.25;;;;;;;;5118986;27;11698;-77
2022/02/05 12:28:34;;;;;;;;;21.50;21.00;;;;;;;;5122107;27;14562;-78
2022/02/05 12:31:25;;;;;;;;;14.25;14.25;;;;;;;;5120604;27;13866;-77
2022/02/05 12:34:00;;;;;;;;;14.75;14.00;;;;;;;;5112145;27;15959;-75
2022/02/05 12:36:33;;;;;;;;;15.50;14.50;;;;;;;;5136504;27;11473;-74
2022/02/05 12:39:00;;;;;;;;;16.75;15.25;;;;;;;;5133112;27;11658;-74
2022/02/05 12:41:26;;;;;;;;;19.50;16.75;;;;;;;;5138065;27;11454;-79
2022/02/05 12:43:54;;;;;;;;;13.50;12.75;;;;;;;;5122198;27;12956;-77
2022/02/05 12:46:21;;;;;;;;;13.75;11.75;;;;;;;;5139309;27;8786;-75
2022/02/05 12:48:51;;;;;;;;;8.00;8.00;;;;;;;;5118008;27;11499;-76
2022/02/05 12:51:16;;;;;;;;;7.25;7.25;;;;;;;;5131417;27;22408;-75
2022/02/05 12:53:43;;;;;;;;;8.00;6.25;;;;;;;;5117137;27;13357;-78
2022/02/05 12:56:21;;;;;;;;;7.00;7.00;;;;;;;;5119189;27;13756;-80
2022/02/05 12:59:02;;;;;;;;;1.00;1.00;;;;;;;;5135162;27;11628;-74
2022/02/05 13:01:28;;;;;;;;;5.50;5.00;;;;;;;;5139173;27;11336;-76
2022/02/05 13:04:09;;;;;;;;;6.00;6.00;;;;;;;;5133744;27;11451;-75
2022/02/05 13:06:34;;;;;;;;;6.00;6.00;;;;;;;;5137085;27;13515;-76
2022/02/05 13:09:00;;;;;;;;;11.00;7.50;;;;;;;;5137958;27;11690;-76
2022/02/05 13:11:29;;;;;;;;;6.00;6.00;;;;;;;;5131310;27;23153;-75
2022/02/05 13:13:55;;;;;;;;;7.50;7.00;;;;;;;;5120033;28;21501;-77
2022/02/05 13:16:26;;;;;;;;;5.50;5.25;;;;;;;;5120068;28;11482;-75
2022/02/05 13:18:56;;;;;;;;;8.00;6.75;;;;;;;;5101759;28;14000;-77
2022/02/05 13:26:59;;;;;;;;;5.00;4.25;;;;;;;;5119982;28;11379;-74
2022/02/05 13:29:40;;;;;;;;;7.00;6.25;;;;;;;;5119111;27;11386;-72
2022/02/05 13:34:50;;;;;;;;;7.75;6.50;;;;;;;;5139900;27;12298;-73
2022/02/05 13:37:22;;;;;;;;;4.75;3.50;;;;;;;;5140281;27;11373;-73
2022/02/05 13:40:00;;;;;;;;;6.25;4.50;;;;;;;;5140784;27;11448;-74
2022/02/05 13:42:28;;;;;;;;;6.75;4.00;;;;;;;;5140194;27;11408;-75
2022/02/05 13:45:00;;;;;;;;;7.50;4.00;;;;;;;;5139894;27;11376;-77
2022/02/05 13:47:32;;;;;;;;;7.00;6.00;;;;;;;;5140673;27;11456;-77
2022/02/05 13:49:59;;;;;;;;;6.50;6.50;;;;;;;;5139958;27;11353;-77
2022/02/05 13:52:31;;;;;;;;;6.50;5.50;;;;;;;;5140460;27;11439;-76
2022/02/05 13:54:56;;;;;;;;;2.00;2.00;;;;;;;;5120340;27;11368;-80
2022/02/05 13:57:21;;;;;;;;;2.25;2.25;;;;;;;;5115814;27;12186;-80
2022/02/05 13:59:54;;;;;;;;;6.25;3.00;;;;;;;;5132317;27;8824;-80
2022/02/05 14:02:21;;;;;;;;;5.50;4.50;;;;;;;;5133247;27;11731;-80
2022/02/05 14:05:05;;;;;;;;;8.25;6.00;;;;;;;;5134314;27;11423;-78
2022/02/05 14:07:40;;;;;;;;;3.25;3.25;;;;;;;;5132794;27;11414;-79
2022/02/05 14:10:16;;;;;;;;;1.00;1.00;;;;;;;;5136237;27;11385;-78
2022/02/05 14:12:52;;;;;;;;;1.50;1.00;;;;;;;;5119675;27;13695;-78
2022/02/05 14:15:18;;;;;;;;;1.75;1.00;;;;;;;;5120877;27;11160;-77
2022/02/05 14:17:46;;;;;;;;;1.00;1.00;;;;;;;;5137281;27;11315;-80
2022/02/05 14:20:12;;;;;;;;;0.50;0.00;;;;;;;;5137208;27;11593;-77
2022/02/05 14:22:40;;;;;;;;;2.25;2.00;;;;;;;;5139065;27;10991;-78
2022/02/05 14:25:13;;;;;;;;;0.75;0.75;;;;;;;;5120717;27;11427;-79
2022/02/05 14:27:58;;;;;;;;;1.00;1.00;;;;;;;;5135543;27;13633;-73
2022/02/05 14:30:27;;;;;;;;;2.50;1.00;;;;;;;;5140299;27;11944;-77
2022/02/05 14:32:58;;;;;;;;;0.00;0.00;;;;;;;;5140462;27;10936;-76
2022/02/05 14:36:38;;;;;;;;;2.00;0.50;;;;;;;;5141867;27;11861;-76
2022/02/05 14:41:04;;;;;;;;;1.00;1.00;;;;;;;;5143173;27;11327;-76
2022/02/05 14:43:29;;;;;;;;;2.50;0.00;;;;;;;;5138840;27;11399;-75
2022/02/05 14:45:55;;;;;;;;;1.00;1.00;;;;;;;;5141516;27;10919;-76
2022/02/05 14:48:20;;;;;;;;;0.00;0.00;;;;;;;;5141809;27;10668;-76
2022/02/05 14:50:45;;;;;;;;;1.50;1.50;;;;;;;;5119976;27;8833;-75
2022/02/05 14:53:11;;;;;;;;;1.00;1.00;;;;;;;;5139779;27;12386;-75
2022/02/05 14:55:36;;;;;;;;;2.00;2.00;;;;;;;;5142007;27;10232;-75
2022/02/05 14:58:02;;;;;;;;;1.75;1.25;;;;;;;;5140988;27;8821;-75
2022/02/05 15:00:27;;;;;;;;;2.00;1.00;;;;;;;;5140008;27;11469;-74
2022/02/05 15:02:53;;;;;;;;;2.00;2.00;;;;;;;;5138929;27;12455;-76
2022/02/05 15:05:18;;;;;;;;;3.00;3.00;;;;;;;;5119670;27;9234;-75
2022/02/05 15:07:44;;;;;;;;;3.75;3.00;;;;;;;;5139407;27;9116;-74
2022/02/05 15:10:11;;;;;;;;;2.50;2.50;;;;;;;;5139293;27;8805;-76
2022/02/05 15:12:37;;;;;;;;;2.50;2.50;;;;;;;;5136562;27;12779;-76
2022/02/05 15:15:09;;;;;;;;;3.00;3.00;;;;;;;;5143465;27;11157;-78
2022/02/05 15:17:40;;;;;;;;;3.25;3.25;;;;;;;;5142380;27;11568;-85
2022/02/05 15:20:06;;;;;;;;;4.00;3.00;;;;;;;;5143641;27;11371;-86
2022/02/05 15:22:31;;;;;;;;;3.25;3.25;;;;;;;;5143034;27;11416;-73
2022/02/05 15:24:57;;;;;;;;;8.00;3.00;;;;;;;;5141757;27;11905;-73
2022/02/05 15:27:22;;;;;;;;;3.50;3.50;;;;;;;;5142100;27;11849;-73
2022/02/05 15:29:47;;;;;;;;;3.00;2.25;;;;;;;;5141897;27;11285;-72
2022/02/05 15:32:12;;;;;;;;;2.50;2.00;;;;;;;;5141676;27;11543;-72
2022/02/05 15:34:38;;;;;;;;;4.00;3.00;;;;;;;;5140529;27;11966;-73
2022/02/05 15:37:09;;;;;;;;;1.00;1.00;;;;;;;;5141626;27;10254;-75
2022/02/05 15:44:44;;;;;;;;;2.00;2.00;;;;;;;;5141784;27;10297;-74
2022/02/05 15:47:09;;;;;;;;;2.75;2.00;;;;;;;;5141885;27;12753;-73
2022/02/05 15:49:35;;;;;;;;;2.00;2.00;;;;;;;;5141886;27;9588;-73
2022/02/05 15:52:00;;;;;;;;;5.00;3.25;;;;;;;;5141854;27;8938;-72
2022/02/05 15:54:29;;;;;;;;;6.00;3.00;;;;;;;;5142373;27;11677;-73
2022/02/05 15:57:02;;;;;;;;;3.00;3.00;;;;;;;;5140819;27;11436;-72
2022/02/05 15:59:49;;;;;;;;;4.50;3.25;;;;;;;;5136675;27;12132;-75
2022/02/05 16:02:13;;;;;;;;;4.50;2.00;;;;;;;;5133958;27;11447;-75
2022/02/05 16:04:38;;;;;;;;;2.50;2.50;;;;;;;;5137588;27;11372;-77
2022/02/05 16:07:03;;;;;;;;;3.00;2.00;;;;;;;;5138200;27;12573;-78
2022/02/05 16:09:29;;;;;;;;;3.00;3.00;;;;;;;;5137338;27;11514;-77
2022/02/05 16:11:56;;;;;;;;;3.00;3.00;;;;;;;;5137513;27;8781;-78
2022/02/05 16:14:21;;;;;;;;;1.25;1.25;;;;;;;;5135825;27;8831;-77
2022/02/05 16:16:46;;;;;;;;;2.00;2.00;;;;;;;;5126238;27;11598;-77
2022/02/05 16:19:12;;;;;;;;;2.00;2.00;;;;;;;;5131961;27;11461;-78
2022/02/05 16:21:37;;;;;;;;;2.50;2.00;;;;;;;;5118673;27;8828;-77
2022/02/05 16:24:04;;;;;;;;;1.75;1.75;;;;;;;;5112790;27;9209;-77
2022/02/05 16:26:29;;;;;;;;;2.50;2.50;;;;;;;;5134035;27;11362;-77
2022/02/05 16:28:54;;;;;;;;;3.50;3.50;;;;;;;;5137485;27;11385;-76
2022/02/05 16:31:19;;;;;;;;;2.00;2.00;;;;;;;;5137152;27;8798;-77
2022/02/05 16:33:45;;;;;;;;;6.75;3.00;;;;;;;;5124861;27;12781;-79
2022/02/05 16:36:13;;;;;;;;;1.00;1.00;;;;;;;;5120612;28;10357;-79
2022/02/05 16:38:40;;;;;;;;;3.25;3.25;;;;;;;;5131598;27;10327;-79
2022/02/05 16:41:06;;;;;;;;;5.00;3.00;;;;;;;;5131637;27;11411;-78
2022/02/05 16:43:41;;;;;;;;;6.75;6.00;;;;;;;;5130799;27;11475;-82
2022/02/05 16:46:08;;;;;;;;;4.75;3.00;;;;;;;;5129177;27;10367;-82
2022/02/05 16:48:34;;;;;;;;;5.75;4.25;;;;;;;;5122927;27;11366;-83
2022/02/05 16:51:03;;;;;;;;;5.50;4.75;;;;;;;;5136516;27;11473;-83
2022/02/05 16:53:28;;;;;;;;;5.00;5.00;;;;;;;;5138252;27;8793;-82
2022/02/05 16:55:53;;;;;;;;;9.00;6.00;;;;;;;;5139949;27;11434;-83
2022/02/05 16:58:19;;;;;;;;;7.25;6.00;;;;;;;;5137095;27;8802;-82
2022/02/05 17:00:44;;;;;;;;;7.75;7.75;;;;;;;;5131652;27;9048;-78
2022/02/05 17:03:09;;;;;;;;;10.00;7.50;;;;;;;;5126741;27;10504;-77
2022/02/05 17:05:40;;;;;;;;;9.50;8.00;;;;;;;;5111644;27;24062;-85
2022/02/05 17:08:07;;;;;;;;;10.00;8.00;;;;;;;;5137919;27;21799;-85
2022/02/05 17:10:32;;;;;;;;;12.50;10.25;;;;;;;;5119892;27;18911;-83
2022/02/05 17:12:58;;;;;;;;;8.00;8.00;;;;;;;;5119647;27;23495;-81
2022/02/05 17:15:24;;;;;;;;;11.50;10.00;;;;;;;;5120035;27;25349;-85
2022/02/05 17:17:59;;;;;;;;;12.25;11.00;;;;;;;;5120218;27;23176;-81
2022/02/05 17:20:29;;;;;;;;;11.50;8.25;;;;;;;;5138996;27;11137;-80
2022/02/05 17:22:56;;;;;;;;;8.50;7.00;;;;;;;;5120174;27;23554;-86
2022/02/05 17:25:22;;;;;;;;;15.50;11.75;;;;;;;;5139531;27;21644;-82
2022/02/05 17:27:47;;;;;;;;;9.25;9.25;;;;;;;;5119654;27;22657;-80
2022/02/05 17:30:13;;;;;;;;;12.50;11.75;;;;;;;;5119925;27;24702;-82
2022/02/05 17:32:44;;;;;;;;;16.00;14.50;;;;;;;;5137511;27;23438;-79
2022/02/05 17:35:10;;;;;;;;;11.25;11.00;;;;;;;;5138067;27;11642;-77
2022/02/05 17:37:38;;;;;;;;;16.25;11.50;;;;;;;;5134480;27;12761;-78
2022/02/05 17:40:03;;;;;;;;;17.25;14.00;;;;;;;;5119453;27;13050;-78
2022/02/05 17:42:30;;;;;;;;;11.25;11.00;;;;;;;;5137654;27;11482;-77
2022/02/05 17:44:55;;;;;;;;;18.00;15.00;;;;;;;;5138861;27;9018;-78
2022/02/05 17:47:21;;;;;;;;;19.00;15.00;;;;;;;;5138869;27;11591;-83
2022/02/05 17:49:46;;;;;;;;;18.25;16.75;;;;;;;;5142601;27;8782;-81
2022/02/05 17:52:11;;;;;;;;;20.00;16.75;;;;;;;;5143584;27;11519;-76
2022/02/05 17:54:39;;;;;;;;;17.50;15.25;;;;;;;;5143203;27;10149;-75
2022/02/05 17:57:05;;;;;;;;;17.25;15.50;;;;;;;;5142878;27;12548;-76
2022/02/05 17:59:31;;;;;;;;;18.50;13.00;;;;;;;;5142726;27;11450;-78
2022/02/05 18:01:56;;;;;;;;;17.25;16.00;;;;;;;;5142730;27;11357;-77
2022/02/05 18:04:23;;;;;;;;;15.75;15.75;;;;;;;;5142858;27;10393;-77
2022/02/05 18:06:52;;;;;;;;;16.50;12.00;;;;;;;;5143229;27;11441;-77
2022/02/05 18:12:05;;;;;;;;;15.75;11.50;;;;;;;;5135316;27;11530;-77
2022/02/05 18:14:36;;;;;;;;;31.00;24.75;;;;;;;;5137163;27;12541;-79
2022/02/05 18:17:02;;;;;;;;;34.75;32.00;;;;;;;;5123401;27;14446;-75
2022/02/05 18:19:28;;;;;;;;;33.00;29.00;;;;;;;;5123877;27;12299;-77
2022/02/05 18:21:54;;;;;;;;;30.50;24.25;;;;;;;;5142693;27;12349;-75
2022/02/05 18:24:19;;;;;;;;;30.25;26.50;;;;;;;;5142643;27;12035;-76
2022/02/05 18:26:45;;;;;;;;;31.25;30.00;;;;;;;;5142854;27;10587;-76
2022/02/05 18:29:10;;;;;;;;;31.00;27.50;;;;;;;;5123529;27;14338;-83
2022/02/05 18:31:38;;;;;;;;;25.00;21.25;;;;;;;;5139324;27;12176;-83
2022/02/05 18:34:07;;;;;;;;;25.00;23.00;;;;;;;;5142596;27;13569;-83
2022/02/05 18:36:32;;;;;;;;;27.75;23.25;;;;;;;;5142056;27;11473;-80
2022/02/05 18:38:58;;;;;;;;;30.00;23.75;;;;;;;;5141341;27;11675;-79
2022/02/05 18:41:28;;;;;;;;;29.25;26.00;;;;;;;;5140773;27;12244;-77
2022/02/05 18:43:59;;;;;;;;;24.50;23.00;;;;;;;;5140350;27;13465;-77
2022/02/05 18:46:27;;;;;;;;;27.00;25.75;;;;;;;;5122135;27;13752;-79
2022/02/05 18:48:53;;;;;;;;;23.00;22.00;;;;;;;;5138444;27;11524;-76
2022/02/05 18:51:18;;;;;;;;;28.00;24.00;;;;;;;;5140126;27;12222;-75
2022/02/05 18:53:43;;;;;;;;;25.00;23.00;;;;;;;;5122720;27;9114;-75
2022/02/05 18:56:09;;;;;;;;;31.50;24.50;;;;;;;;5122202;27;9401;-79
2022/02/05 18:58:36;;;;;;;;;26.50;23.25;;;;;;;;5141754;27;13220;-75
2022/02/05 19:01:15;;;;;;;;;23.75;21.75;;;;;;;;5141524;27;13462;-77
2022/02/05 19:15:06;;;;;;;;;29.75;25.50;;;;;;;;5139192;27;11581;-79
2022/02/05 19:19:50;;;;;;;;;25.00;24.50;;;;;;;;5137583;27;13280;-75
2022/02/05 19:22:16;;;;;;;;;26.00;22.50;;;;;;;;5138743;27;13418;-75
2022/02/05 19:24:41;;;;;;;;;27.00;25.00;;;;;;;;5140654;27;9298;-74
2022/02/05 19:27:06;;;;;;;;;27.50;24.50;;;;;;;;5141053;27;12006;-75
2022/02/05 19:29:32;;;;;;;;;28.75;26.75;;;;;;;;5121035;27;10417;-78
2022/02/05 19:31:57;;;;;;;;;25.75;25.00;;;;;;;;5140118;27;12569;-76
2022/02/05 19:34:22;;;;;;;;;31.00;26.25;;;;;;;;5120042;27;13714;-74
2022/02/05 19:36:48;;;;;;;;;30.50;25.25;;;;;;;;5138838;27;13274;-76
2022/02/05 19:39:14;;;;;;;;;27.00;25.00;;;;;;;;5138134;27;10803;-76
2022/02/05 19:41:45;;;;;;;;;37.50;32.50;;;;;;;;5139694;27;13234;-75
2022/02/05 19:44:18;;;;;;;;;26.75;25.00;;;;;;;;5139967;27;13764;-76
2022/02/05 19:46:56;;;;;;;;;35.00;30.00;;;;;;;;5136884;27;13939;-78
2022/02/05 19:49:21;;;;;;;;;34.75;29.75;;;;;;;;5140581;27;12535;-77
2022/02/05 19:51:47;;;;;;;;;38.33;31.67;;;;;;;;5140965;27;12362;-77
2022/02/05 19:54:12;;;;;;;;;36.33;34.00;;;;;;;;5140747;27;12191;-75
2022/02/05 19:56:38;;;;;;;;;34.33;31.67;;;;;;;;5137677;27;13103;-75
2022/02/05 19:59:05;;;;;;;;;35.67;29.00;;;;;;;;5137235;27;11382;-76
2022/02/05 20:01:31;;;;;;;;;38.00;31.33;;;;;;;;5135458;27;12737;-74
2022/02/05 20:03:58;;;;;;;;;31.67;31.33;;;;;;;;5132162;27;12331;-74
2022/02/05 20:06:29;;;;;;;;;35.25;30.00;;;;;;;;5133834;27;8929;-75
2022/02/05 20:08:55;;;;;;;;;39.33;32.00;;;;;;;;5113650;27;14709;-75
2022/02/05 20:11:20;;;;;;;;;40.00;34.00;;;;;;;;5133950;27;11556;-75
2022/02/05 20:13:45;;;;;;;;;42.67;34.33;;;;;;;;5114132;27;14390;-76
2022/02/05 20:16:11;;;;;;;;;39.33;35.33;;;;;;;;5132020;27;11451;-75
2022/02/05 20:18:37;;;;;;;;;31.67;30.00;;;;;;;;5112899;27;13181;-74
2022/02/05 20:21:10;;;;;;;;;37.00;33.00;;;;;;;;5134383;27;11439;-75
2022/02/05 20:23:35;;;;;;;;;39.67;36.33;;;;;;;;5121249;27;13116;-77
2022/02/05 20:26:01;;;;;;;;;38.67;32.33;;;;;;;;5140311;27;12555;-79
2022/02/05 20:28:28;;;;;;;;;32.33;30.33;;;;;;;;5140170;27;8805;-78
2022/02/05 20:30:55;;;;;;;;;43.33;37.00;;;;;;;;5138733;27;11455;-75
2022/02/05 20:33:22;;;;;;;;;38.67;36.33;;;;;;;;5120778;27;15455;-77
2022/02/05 20:35:48;;;;;;;;;33.33;29.33;;;;;;;;5140329;27;13393;-77
2022/02/05 20:38:13;;;;;;;;;35.33;33.67;;;;;;;;5140493;27;11629;-76
2022/02/05 20:40:39;;;;;;;;;39.00;33.00;;;;;;;;5140543;27;12413;-76
2022/02/05 20:43:05;;;;;;;;;38.33;31.33;;;;;;;;5140671;27;12928;-77
2022/02/05 20:45:30;;;;;;;;;32.67;30.67;;;;;;;;5140246;27;12512;-76
2022/02/05 20:47:55;;;;;;;;;33.33;33.00;;;;;;;;5120949;27;11857;-77
2022/02/05 20:50:24;;;;;;;;;36.33;35.00;;;;;;;;5139699;27;11606;-77
2022/02/05 20:52:51;;;;;;;;;37.00;31.33;;;;;;;;5140239;27;8768;-77
2022/02/05 20:55:17;;;;;;;;;35.33;32.00;;;;;;;;5140701;27;11517;-77
2022/02/05 20:57:42;;;;;;;;;28.00;27.33;;;;;;;;5140419;27;12160;-77
2022/02/05 21:00:12;;;;;;;;;37.00;32.67;;;;;;;;5140472;27;13300;-78
2022/02/05 21:02:37;;;;;;;;;45.00;38.33;;;;;;;;5140676;27;13807;-76
2022/02/05 21:05:04;;;;;;;;;39.00;36.00;;;;;;;;5139585;27;13791;-75
2022/02/05 21:07:29;;;;;;;;;37.00;32.00;;;;;;;;5139615;27;15981;-77
2022/02/05 21:09:58;;;;;;;;;36.00;35.00;;;;;;;;5140358;27;8762;-78
2022/02/05 21:12:23;;;;;;;;;38.67;33.00;;;;;;;;5140005;27;8774;-76
2022/02/05 21:14:49;;;;;;;;;35.67;33.67;;;;;;;;5139342;27;10416;-76
2022/02/05 21:17:16;;;;;;;;;33.33;33.33;;;;;;;;5139290;27;13495;-76
2022/02/05 21:19:41;;;;;;;;;39.00;32.67;;;;;;;;5139864;27;11463;-77
2022/02/05 21:22:07;;;;;;;;;43.67;35.00;;;;;;;;5139984;27;11488;-75
2022/02/05 21:24:35;;;;;;;;;37.33;35.00;;;;;;;;5139795;27;13298;-78
2022/02/05 21:27:02;;;;;;;;;30.67;25.67;;;;;;;;5140329;27;10352;-78
2022/02/05 21:29:30;;;;;;;;;36.33;27.33;;;;;;;;5139658;27;12571;-77
2022/02/05 21:32:06;;;;;;;;;38.33;35.00;;;;;;;;5139900;27;12397;-78
2022/02/05 21:37:01;;;;;;;;;41.00;32.67;;;;;;;;5139620;27;8802;-76
2022/02/05 21:39:26;;;;;;;;;30.33;28.00;;;;;;;;5139601;27;13311;-74
2022/02/05 21:41:52;;;;;;;;;32.67;27.00;;;;;;;;5139766;27;13405;-77
2022/02/05 21:44:17;;;;;;;;;23.67;21.00;;;;;;;;5139575;27;10629;-75
2022/02/05 21:46:43;;;;;;;;;34.67;30.33;;;;;;;;5120527;27;12544;-76
2022/02/05 21:49:09;;;;;;;;;26.67;26.67;;;;;;;;5139179;27;14466;-75
2022/02/05 21:51:37;;;;;;;;;31.00;28.00;;;;;;;;5139199;27;14464;-77
2022/02/05 21:54:11;;;;;;;;;31.00;27.00;;;;;;;;5139510;27;13295;-76
2022/02/05 21:56:40;;;;;;;;;30.33;27.67;;;;;;;;5139698;27;8759;-76
2022/02/05 21:59:08;;;;;;;;;29.67;28.33;;;;;;;;5139782;27;11533;-77
2022/02/05 22:01:39;;;;;;;;;28.00;23.67;;;;;;;;5139179;27;14806;-76
2022/02/05 22:04:05;;;;;;;;;27.67;25.67;;;;;;;;5120158;27;11993;-77
2022/02/05 22:06:30;;;;;;;;;28.67;25.33;;;;;;;;5139811;27;11451;-75
2022/02/05 22:08:57;;;;;;;;;32.33;27.67;;;;;;;;5139831;27;11539;-75
2022/02/05 22:11:22;;;;;;;;;22.33;20.00;;;;;;;;5139083;27;13306;-75
2022/02/05 22:13:47;;;;;;;;;27.00;26.00;;;;;;;;5138745;27;13312;-77
2022/02/05 22:16:13;;;;;;;;;27.33;26.00;;;;;;;;5138630;27;10647;-77
2022/02/05 22:18:38;;;;;;;;;29.67;26.00;;;;;;;;5139240;27;8782;-75
2022/02/05 22:21:04;;;;;;;;;30.67;26.33;;;;;;;;5138936;27;8937;-75
2022/02/05 22:23:29;;;;;;;;;23.00;22.00;;;;;;;;5138449;27;14568;-76
2022/02/05 22:25:54;;;;;;;;;26.67;26.67;;;;;;;;5139127;27;13265;-77
2022/02/05 22:28:20;;;;;;;;;26.33;24.00;;;;;;;;5138921;27;11428;-75
2022/02/05 22:30:45;;;;;;;;;24.00;22.00;;;;;;;;5140701;27;10877;-77
2022/02/05 22:33:10;;;;;;;;;35.33;27.67;;;;;;;;5141219;27;10583;-76
2022/02/05 22:35:36;;;;;;;;;24.33;20.67;;;;;;;;5142176;27;13390;-75
2022/02/05 22:38:01;;;;;;;;;28.00;26.67;;;;;;;;5143086;27;10550;-77
2022/02/05 22:40:26;;;;;;;;;26.00;23.67;;;;;;;;5142957;27;10359;-76
2022/02/05 22:42:52;;;;;;;;;19.00;15.67;;;;;;;;5142023;27;8805;-77
2022/02/05 22:45:17;;;;;;;;;30.00;25.00;;;;;;;;5142137;27;10747;-74
2022/02/05 22:47:46;;;;;;;;;26.00;23.67;;;;;;;;5120384;27;15869;-77
2022/02/05 22:50:11;;;;;;;;;30.67;28.67;;;;;;;;5139742;27;13471;-77
2022/02/05 22:52:36;;;;;;;;;25.00;23.67;;;;;;;;5138649;27;12268;-77
2022/02/05 22:55:02;;;;;;;;;30.00;26.67;;;;;;;;5142566;27;12194;-77
2022/02/05 22:57:27;;;;;;;;;28.33;26.67;;;;;;;;5143117;27;10358;-77
2022/02/05 22:59:53;;;;;;;;;25.00;25.00;;;;;;;;5142971;27;8782;-75
2022/02/05 23:02:18;;;;;;;;;26.67;22.00;;;;;;;;5141991;27;11775;-77
2022/02/05 23:04:43;;;;;;;;;29.00;27.33;;;;;;;;5142150;27;10564;-77
2022/02/05 23:07:10;;;;;;;;;29.67;26.00;;;;;;;;5142323;27;11531;-77
2022/02/05 23:09:45;;;;;;;;;29.33;25.67;;;;;;;;5141792;27;10443;-77
2022/02/05 23:14:52;;;;;;;;;32.67;31.00;;;;;;;;5141709;27;11473;-78
2022/02/05 23:42:09;;;;;;;;;43.33;37.33;;;;;;;;5037851;28;13372;-75
2022/02/05 23:44:35;;;;;;;;;39.00;34.33;;;;;;;;5021092;28;15721;-76
2022/02/05 23:47:01;;;;;;;;;36.33;35.00;;;;;;;;5037925;28;12325;-75
2022/02/05 23:49:27;;;;;;;;;46.33;41.00;;;;;;;;5037697;28;11412;-77
2022/02/05 23:51:52;;;;;;;;;40.00;38.00;;;;;;;;5069568;27;10416;-77
2022/02/05 23:54:18;;;;;;;;;46.67;36.67;;;;;;;;5140593;27;11539;-74
2022/02/05 23:56:43;;;;;;;;;34.00;33.00;;;;;;;;5141141;27;11134;-76
2022/02/05 23:59:08;;;;;;;;;38.67;32.00;;;;;;;;5121941;27;13578;-76
